createdAt,value
2019-05-12T00:00:07.910Z,1.50
2019-05-12T00:02:36.253Z,1.33
2019-05-12T00:05:04.711Z,1.57
2019-05-12T00:07:32.652Z,1.40
2019-05-12T00:10:00.635Z,1.50
2019-05-12T00:12:28.558Z,1.60
2019-05-12T00:14:58.914Z,1.30
2019-05-12T00:17:28.326Z,1.40
2019-05-12T00:19:58.345Z,1.43
2019-05-12T00:22:28.663Z,1.30
2019-05-12T00:24:58.377Z,1.10
2019-05-12T00:27:28.423Z,1.40
2019-05-12T00:29:57.829Z,1.20
2019-05-12T00:32:28.092Z,1.30
2019-05-12T00:34:55.480Z,1.10
2019-05-12T00:37:23.477Z,1.20
2019-05-12T00:39:51.495Z,1.17
2019-05-12T00:42:19.445Z,1.40
2019-05-12T00:44:47.850Z,1.50
2019-05-12T00:47:15.938Z,1.20
2019-05-12T00:49:43.908Z,1.10
2019-05-12T00:52:11.917Z,1.27
2019-05-12T00:54:39.844Z,1.20
2019-05-12T00:57:07.905Z,1.10
2019-05-12T00:59:38.144Z,1.20
2019-05-12T01:02:05.419Z,1.10
2019-05-12T01:04:33.313Z,1.20
2019-05-12T01:07:01.225Z,1.30
2019-05-12T01:09:29.231Z,1.33
2019-05-12T01:11:58.797Z,1.30
2019-05-12T01:14:27.873Z,1.13
2019-05-12T01:16:57.872Z,1.07
2019-05-12T01:19:25.593Z,1.13
2019-05-12T01:21:53.520Z,1.03
2019-05-12T01:24:21.583Z,1.10
2019-05-12T01:26:49.511Z,1.30
2019-05-12T01:29:17.767Z,1.20
2019-05-12T01:31:52.851Z,1.20
2019-05-12T01:34:20.819Z,1.30
2019-05-12T01:36:48.716Z,1.10
2019-05-12T01:39:18.621Z,1.37
2019-05-12T01:41:48.109Z,1.27
2019-05-12T01:44:18.218Z,1.33
2019-05-12T01:46:45.535Z,1.10
2019-05-12T01:49:13.439Z,1.20
2019-05-12T01:51:41.331Z,1.20
2019-05-12T01:54:14.712Z,1.40
2019-05-12T01:56:38.947Z,1.10
2019-05-12T01:59:08.161Z,1.20
2019-05-12T02:01:38.645Z,0.90
2019-05-12T02:04:07.754Z,1.00
2019-05-12T02:06:38.389Z,1.20
2019-05-12T02:09:08.786Z,1.10
2019-05-12T02:11:37.971Z,1.30
2019-05-12T02:14:06.943Z,1.40
2019-05-12T02:16:38.474Z,1.30
2019-05-12T02:19:05.715Z,1.30
2019-05-12T02:21:33.706Z,1.10
2019-05-12T02:24:01.717Z,1.30
2019-05-12T02:26:29.720Z,1.00
2019-05-12T02:28:58.572Z,1.20
2019-05-12T02:31:29.426Z,1.20
2019-05-12T02:33:56.418Z,0.97
2019-05-12T02:36:25.825Z,1.20
2019-05-12T02:38:55.940Z,1.20
2019-05-12T02:41:25.894Z,1.10
2019-05-12T02:43:55.397Z,1.20
2019-05-12T02:46:25.575Z,1.20
2019-05-12T02:48:54.595Z,0.90
2019-05-12T02:51:24.819Z,1.03
2019-05-12T02:53:54.582Z,1.20
2019-05-12T02:56:25.751Z,1.30
2019-05-12T02:58:54.343Z,1.20
2019-05-12T03:01:24.354Z,1.20
2019-05-12T03:03:55.040Z,1.30
2019-05-12T03:06:25.289Z,1.33
2019-05-12T03:08:55.169Z,1.30
2019-05-12T03:11:24.847Z,1.43
2019-05-12T03:13:54.862Z,1.23
2019-05-12T03:16:25.420Z,1.20
2019-05-12T03:18:55.113Z,1.03
2019-05-12T03:21:24.466Z,1.50
2019-05-12T03:23:51.370Z,1.10
2019-05-12T03:26:19.355Z,1.10
2019-05-12T03:28:47.275Z,1.33
2019-05-12T03:31:21.991Z,1.13
2019-05-12T03:33:52.179Z,1.37
2019-05-12T03:36:17.754Z,1.20
2019-05-12T03:38:44.941Z,1.20
2019-05-12T03:41:14.688Z,1.30
2019-05-12T03:43:44.907Z,1.20
2019-05-12T03:46:15.227Z,1.23
2019-05-12T03:48:45.337Z,1.10
2019-05-12T03:51:15.213Z,1.30
2019-05-12T03:53:45.110Z,1.30
2019-05-12T03:56:11.185Z,1.20
2019-05-12T03:58:39.116Z,1.20
2019-05-12T04:01:07.076Z,1.30
2019-05-12T04:03:35.059Z,1.30
2019-05-12T04:06:04.743Z,1.93
2019-05-12T04:08:34.708Z,1.77
2019-05-12T04:11:05.185Z,2.63
2019-05-12T04:13:34.137Z,3.80
2019-05-12T04:16:04.654Z,3.60
2019-05-12T04:18:31.198Z,3.40
2019-05-12T04:20:59.077Z,3.90
2019-05-12T04:23:27.068Z,4.50
2019-05-12T04:26:06.824Z,4.10
2019-05-12T04:28:24.790Z,4.53
2019-05-12T04:30:54.521Z,4.73
2019-05-12T04:33:25.439Z,5.00
2019-05-12T04:35:55.167Z,6.13
2019-05-12T04:38:24.692Z,5.50
2019-05-12T04:40:51.341Z,5.50
2019-05-12T04:43:19.343Z,6.33
2019-05-12T04:45:47.390Z,6.10
2019-05-12T04:48:20.170Z,6.13
2019-05-12T04:50:45.380Z,6.37
2019-05-12T04:53:14.486Z,6.43
2019-05-12T04:55:44.525Z,6.67
2019-05-12T04:58:15.740Z,6.10
2019-05-12T05:00:44.645Z,6.23
2019-05-12T05:03:14.077Z,6.40
2019-05-12T05:05:43.782Z,6.17
2019-05-12T05:08:13.551Z,7.30
2019-05-12T05:10:40.713Z,6.30
2019-05-12T05:13:08.735Z,6.90
2019-05-12T05:15:36.740Z,6.60
2019-05-12T05:18:06.817Z,6.77
2019-05-12T05:20:34.722Z,6.60
2019-05-12T05:23:03.498Z,6.53
2019-05-12T05:25:33.993Z,6.30
2019-05-12T05:28:03.733Z,6.63
2019-05-12T05:30:33.572Z,6.40
2019-05-12T05:33:00.861Z,6.17
2019-05-12T05:35:33.762Z,6.30
2019-05-12T05:37:58.623Z,6.30
2019-05-12T05:40:30.256Z,7.53
2019-05-12T05:42:56.144Z,7.00
2019-05-12T05:45:26.413Z,7.10
2019-05-12T05:47:54.445Z,7.20
2019-05-12T05:50:25.126Z,7.47
2019-05-12T05:52:54.251Z,7.17
2019-05-12T05:55:23.315Z,7.17
2019-05-12T05:57:53.499Z,6.60
2019-05-12T06:00:25.605Z,7.10
2019-05-12T06:02:51.004Z,7.00
2019-05-12T06:05:19.886Z,7.33
2019-05-12T06:07:48.553Z,8.17
2019-05-12T06:10:16.443Z,8.97
2019-05-12T06:12:48.628Z,8.70
2019-05-12T06:15:14.155Z,7.57
2019-05-12T06:17:43.847Z,6.93
2019-05-12T06:20:13.444Z,7.53
2019-05-12T06:22:43.727Z,7.07
2019-05-12T06:25:15.673Z,7.00
2019-05-12T06:27:41.037Z,6.90
2019-05-12T06:30:10.247Z,7.17
2019-05-12T06:32:41.267Z,6.70
2019-05-12T06:35:08.156Z,6.73
2019-05-12T06:37:36.137Z,7.13
2019-05-12T06:40:04.231Z,6.97
2019-05-12T06:42:34.194Z,7.40
2019-05-12T06:45:03.666Z,6.73
2019-05-12T06:47:34.148Z,7.53
2019-05-12T06:50:03.673Z,7.03
2019-05-12T06:52:30.803Z,7.37
2019-05-12T06:54:58.775Z,7.40
2019-05-12T06:57:28.865Z,6.90
2019-05-12T06:59:56.467Z,7.20
2019-05-12T07:02:24.624Z,6.67
2019-05-12T07:04:57.230Z,6.83
2019-05-12T07:07:25.618Z,6.60
2019-05-12T07:09:54.984Z,7.00
2019-05-12T07:12:26.852Z,6.90
2019-05-12T07:14:57.137Z,6.67
2019-05-12T07:17:49.794Z,6.90
2019-05-12T07:20:18.244Z,6.67
2019-05-12T07:22:48.527Z,6.70
2019-05-12T07:25:15.972Z,6.53
2019-05-12T07:27:47.331Z,6.40
2019-05-12T07:30:13.993Z,6.00
2019-05-12T07:32:43.374Z,6.80
2019-05-12T07:35:11.443Z,6.70
2019-05-12T07:37:40.009Z,7.03
2019-05-12T07:40:08.052Z,6.47
2019-05-12T07:42:39.493Z,6.70
2019-05-12T07:45:11.238Z,5.90
2019-05-12T07:47:36.136Z,6.20
2019-05-12T07:50:09.907Z,5.90
2019-05-12T07:52:34.931Z,5.23
2019-05-12T07:55:04.321Z,6.03
2019-05-12T07:57:36.267Z,5.77
2019-05-12T08:00:03.594Z,5.60
2019-05-12T08:02:35.541Z,5.13
2019-05-12T08:05:03.910Z,5.43
2019-05-12T08:07:33.668Z,5.47
2019-05-12T08:10:06.538Z,5.20
2019-05-12T08:12:31.097Z,5.40
2019-05-12T08:14:59.372Z,5.20
2019-05-12T08:17:28.632Z,5.27
2019-05-12T08:19:56.583Z,5.10
2019-05-12T08:22:29.191Z,5.13
2019-05-12T08:24:54.174Z,5.30
2019-05-12T08:27:23.387Z,5.60
2019-05-12T08:29:52.399Z,5.33
2019-05-12T08:32:23.461Z,5.70
2019-05-12T08:34:54.094Z,5.00
2019-05-12T08:37:24.311Z,5.10
2019-05-12T08:39:53.233Z,4.60
2019-05-12T08:42:23.622Z,5.23
2019-05-12T08:44:54.131Z,4.80
2019-05-12T08:47:23.832Z,5.23
2019-05-12T08:49:57.911Z,4.90
2019-05-12T08:52:23.429Z,5.07
2019-05-12T08:54:50.647Z,5.03
2019-05-12T08:57:18.592Z,4.27
2019-05-12T08:59:46.569Z,4.50
2019-05-12T09:02:14.658Z,4.47
2019-05-12T09:04:51.529Z,4.30
2019-05-12T09:07:13.830Z,4.37
2019-05-12T09:09:43.954Z,4.80
2019-05-12T09:12:13.864Z,4.37
2019-05-12T09:14:45.495Z,4.67
2019-05-12T09:17:10.944Z,4.10
2019-05-12T09:19:38.891Z,3.97
2019-05-12T09:22:16.304Z,4.10
2019-05-12T09:24:36.510Z,4.03
2019-05-12T09:27:08.726Z,4.00
2019-05-12T09:29:34.244Z,4.03
2019-05-12T09:32:05.411Z,3.70
2019-05-12T09:34:33.544Z,3.50
2019-05-12T09:37:03.820Z,3.50
2019-05-12T09:39:36.425Z,3.40
2019-05-12T09:42:00.666Z,3.67
2019-05-12T09:44:30.444Z,3.87
2019-05-12T09:46:58.437Z,5.47
2019-05-12T09:49:31.322Z,5.63
2019-05-12T09:51:56.068Z,3.70
2019-05-12T09:54:26.203Z,3.77
2019-05-12T09:56:55.339Z,3.57
2019-05-12T09:59:25.786Z,3.63
2019-05-12T10:01:54.168Z,4.03
2019-05-12T10:04:22.166Z,3.50
2019-05-12T10:06:50.183Z,3.47
2019-05-12T10:09:19.744Z,3.00
2019-05-12T10:11:53.901Z,3.37
2019-05-12T10:14:19.307Z,3.30
2019-05-12T10:16:49.745Z,2.97
2019-05-12T10:19:16.909Z,3.17
2019-05-12T10:21:49.138Z,2.90
2019-05-12T10:24:14.543Z,3.10
2019-05-12T10:26:48.956Z,2.73
2019-05-12T10:29:20.172Z,3.07
2019-05-12T10:31:44.585Z,2.70
2019-05-12T10:34:23.575Z,2.90
2019-05-12T10:36:53.460Z,2.70
2019-05-12T10:39:20.945Z,3.10
2019-05-12T10:41:49.772Z,2.97
2019-05-12T10:44:17.790Z,3.00
2019-05-12T10:46:47.303Z,3.10
2019-05-12T10:49:15.269Z,3.20
2019-05-12T10:51:44.164Z,3.10
2019-05-12T10:54:15.607Z,3.20
2019-05-12T10:56:43.792Z,3.10
2019-05-12T10:59:13.316Z,3.27
2019-05-12T11:01:47.130Z,3.10
2019-05-12T11:04:11.707Z,3.00
2019-05-12T11:06:43.644Z,3.00
2019-05-12T11:09:09.421Z,3.67
2019-05-12T11:11:42.374Z,3.10
2019-05-12T11:14:09.905Z,2.77
2019-05-12T11:16:41.765Z,2.73
2019-05-12T11:19:10.485Z,2.53
2019-05-12T11:21:38.463Z,3.17
2019-05-12T11:24:06.435Z,2.87
2019-05-12T11:26:34.373Z,2.80
2019-05-12T11:29:03.803Z,2.73
2019-05-12T11:31:33.460Z,2.60
2019-05-12T11:34:04.644Z,2.50
2019-05-12T11:36:31.685Z,2.57
2019-05-12T11:38:59.701Z,2.30
2019-05-12T11:41:28.542Z,2.27
2019-05-12T11:43:56.673Z,2.40
2019-05-12T11:46:24.747Z,2.47
2019-05-12T11:48:53.879Z,2.50
2019-05-12T11:51:26.989Z,2.77
2019-05-12T11:53:51.854Z,2.40
2019-05-12T11:56:19.763Z,2.20
2019-05-12T11:58:51.511Z,2.30
2019-05-12T12:01:19.237Z,2.63
2019-05-12T12:03:47.368Z,2.50
2019-05-12T12:06:15.357Z,2.40
2019-05-12T12:08:44.158Z,2.40
2019-05-12T12:11:18.886Z,2.53
2019-05-12T12:13:41.831Z,2.40
2019-05-12T12:16:11.484Z,2.30
2019-05-12T12:18:39.604Z,1.80
2019-05-12T12:21:07.966Z,2.03
2019-05-12T12:23:36.020Z,1.80
2019-05-12T12:26:04.091Z,2.00
2019-05-12T12:28:34.320Z,2.00
2019-05-12T12:31:05.079Z,2.03
2019-05-12T12:33:38.646Z,2.20
2019-05-12T12:36:01.203Z,1.93
2019-05-12T12:38:29.285Z,1.80
2019-05-12T12:40:57.420Z,2.00
2019-05-12T12:43:25.369Z,1.87
2019-05-12T12:46:00.949Z,2.00
2019-05-12T12:48:29.905Z,1.90
2019-05-12T12:50:58.164Z,1.70
2019-05-12T12:53:27.646Z,2.00
2019-05-12T12:55:58.313Z,1.70
2019-05-12T12:58:27.034Z,1.70
2019-05-12T13:00:57.035Z,1.80
2019-05-12T13:03:29.503Z,1.77
2019-05-12T13:05:54.370Z,1.80
2019-05-12T13:08:24.479Z,1.87
2019-05-12T13:10:54.210Z,1.70
2019-05-12T13:13:21.619Z,1.60
2019-05-12T13:15:49.619Z,1.60
2019-05-12T13:18:24.048Z,1.70
2019-05-12T13:20:47.215Z,1.60
2019-05-12T13:23:15.199Z,1.73
2019-05-12T13:25:50.031Z,1.70
2019-05-12T13:28:18.902Z,2.00
2019-05-12T13:30:47.160Z,1.60
2019-05-12T13:33:14.778Z,1.70
2019-05-12T13:35:43.391Z,1.63
2019-05-12T13:38:14.269Z,1.80
2019-05-12T13:40:41.627Z,1.60
2019-05-12T13:43:15.590Z,1.77
2019-05-12T13:45:39.137Z,1.90
2019-05-12T13:48:09.545Z,1.90
2019-05-12T13:50:37.542Z,2.00
2019-05-12T13:53:08.818Z,2.80
2019-05-12T13:55:39.310Z,3.57
2019-05-12T13:58:04.860Z,3.57
2019-05-12T14:00:33.604Z,3.43
2019-05-12T14:03:04.555Z,3.17
2019-05-12T14:05:31.379Z,3.57
2019-05-12T14:07:59.323Z,3.30
2019-05-12T14:10:27.286Z,3.10
2019-05-12T14:12:55.308Z,2.93
2019-05-12T14:15:24.926Z,2.63
2019-05-12T14:17:54.227Z,2.60
2019-05-12T14:20:23.899Z,2.60
2019-05-12T14:22:53.751Z,2.50
2019-05-12T14:25:30.444Z,2.70
2019-05-12T14:27:53.620Z,2.20
2019-05-12T14:30:21.292Z,2.23
2019-05-12T14:32:53.917Z,2.40
2019-05-12T14:35:18.808Z,2.20
2019-05-12T14:37:47.599Z,2.10
2019-05-12T14:40:15.813Z,2.33
2019-05-12T14:42:44.322Z,2.17
2019-05-12T14:45:13.883Z,2.10
2019-05-12T14:47:43.662Z,2.70
2019-05-12T14:50:13.851Z,2.80
2019-05-12T14:52:43.736Z,3.40
2019-05-12T14:55:13.622Z,3.23
2019-05-12T14:57:40.880Z,2.43
2019-05-12T15:00:11.229Z,2.07
2019-05-12T15:02:39.382Z,2.40
2019-05-12T15:05:10.792Z,2.50
2019-05-12T15:07:42.671Z,2.53
2019-05-12T15:10:08.522Z,2.60
2019-05-12T15:12:36.502Z,2.43
2019-05-12T15:15:09.172Z,2.67
2019-05-12T15:17:37.609Z,3.40
2019-05-12T15:20:10.482Z,4.83
2019-05-12T15:22:51.384Z,3.83
2019-05-12T15:25:06.698Z,3.40
2019-05-12T15:27:44.760Z,3.23
2019-05-12T15:30:17.961Z,2.53
2019-05-12T15:32:34.543Z,2.90
2019-05-12T15:35:02.531Z,2.47
2019-05-12T15:37:34.954Z,2.67
2019-05-12T15:40:00.232Z,2.60
2019-05-12T15:42:28.205Z,2.90
2019-05-12T15:44:56.184Z,2.70
2019-05-12T15:47:29.657Z,2.70
2019-05-12T15:49:53.793Z,2.67
2019-05-12T15:52:21.763Z,2.73
2019-05-12T15:54:51.385Z,2.73
2019-05-12T15:57:19.486Z,2.80
2019-05-12T15:59:47.479Z,3.40
2019-05-12T16:02:17.017Z,2.87
2019-05-12T16:04:48.433Z,2.80
2019-05-12T16:07:14.757Z,3.00
2019-05-12T16:09:45.396Z,3.03
2019-05-12T16:12:21.960Z,3.20
2019-05-12T16:14:44.251Z,2.80
2019-05-12T16:17:16.918Z,2.80
2019-05-12T16:19:44.131Z,2.43
2019-05-12T16:22:13.938Z,2.17
2019-05-12T16:24:43.277Z,2.10
2019-05-12T16:27:13.847Z,2.23
2019-05-12T16:29:45.387Z,2.00
2019-05-12T16:32:23.890Z,2.00
2019-05-12T16:34:44.888Z,2.00
2019-05-12T16:37:10.121Z,2.13
2019-05-12T16:39:44.241Z,2.50
2019-05-12T16:42:10.359Z,2.50
2019-05-12T16:44:37.529Z,2.13
2019-05-12T16:47:05.551Z,2.03
2019-05-12T16:49:34.720Z,2.03
2019-05-12T16:52:03.733Z,2.10
2019-05-12T16:54:33.564Z,2.10
2019-05-12T16:57:06.361Z,2.30
2019-05-12T16:59:31.294Z,2.00
2019-05-12T17:02:04.370Z,2.20
2019-05-12T17:04:29.478Z,1.97
2019-05-12T17:06:57.747Z,2.33
2019-05-12T17:09:25.672Z,2.40
2019-05-12T17:11:55.577Z,2.33
2019-05-12T17:14:23.569Z,2.30
2019-05-12T17:16:54.199Z,2.57
2019-05-12T17:19:23.652Z,2.40
2019-05-12T17:21:55.558Z,2.10
2019-05-12T17:24:23.730Z,2.53
2019-05-12T17:26:50.751Z,2.30
2019-05-12T17:29:18.772Z,2.50
2019-05-12T17:31:46.774Z,2.77
2019-05-12T17:34:14.783Z,2.50
2019-05-12T17:36:44.830Z,2.43
2019-05-12T17:39:13.847Z,2.67
2019-05-12T17:41:43.359Z,2.70
2019-05-12T17:44:13.581Z,2.63
2019-05-12T17:46:43.904Z,2.60
2019-05-12T17:49:17.706Z,2.40
2019-05-12T17:51:40.923Z,2.57
2019-05-12T17:54:15.718Z,2.70
2019-05-12T17:56:38.909Z,3.20
2019-05-12T17:59:06.944Z,2.73
2019-05-12T18:01:35.643Z,2.87
2019-05-12T18:04:04.370Z,2.83
2019-05-12T18:06:34.114Z,2.50
2019-05-12T18:09:03.952Z,3.27
2019-05-12T18:11:34.014Z,3.10
2019-05-12T18:14:06.743Z,2.83
2019-05-12T18:16:33.953Z,2.80
2019-05-12T18:19:03.373Z,3.00
2019-05-12T18:21:34.095Z,2.87
2019-05-12T18:24:08.983Z,3.17
2019-05-12T18:26:31.130Z,3.30
2019-05-12T18:29:04.052Z,3.17
2019-05-12T18:31:33.456Z,3.67
2019-05-12T18:34:01.568Z,2.93
2019-05-12T18:36:29.641Z,2.77
2019-05-12T18:39:05.596Z,2.93
2019-05-12T18:41:27.296Z,2.70
2019-05-12T18:43:55.355Z,2.50
2019-05-12T18:46:23.973Z,2.70
2019-05-12T18:48:59.828Z,2.57
2019-05-12T18:51:23.780Z,2.20
2019-05-12T18:53:53.917Z,2.00
2019-05-12T18:56:21.932Z,2.37
2019-05-12T18:58:50.884Z,2.30
2019-05-12T19:01:18.948Z,2.27
2019-05-12T19:03:51.006Z,2.20
2019-05-12T19:06:16.569Z,2.33
2019-05-12T19:08:44.599Z,1.57
2019-05-12T19:11:20.010Z,1.70
2019-05-12T19:13:51.040Z,1.90
2019-05-12T19:16:14.185Z,2.30
2019-05-12T19:18:41.512Z,1.80
2019-05-12T19:21:16.768Z,1.40
2019-05-12T19:23:39.273Z,1.50
2019-05-12T19:26:07.236Z,1.37
2019-05-12T19:28:35.647Z,1.30
2019-05-12T19:31:06.138Z,1.30
2019-05-12T19:33:34.801Z,1.27
2019-05-12T19:36:05.355Z,1.20
2019-05-12T19:38:34.772Z,1.10
2019-05-12T19:41:04.655Z,1.13
2019-05-12T19:43:34.002Z,1.10
2019-05-12T19:46:03.739Z,1.20
2019-05-12T19:48:35.156Z,1.10
2019-05-12T19:51:17.950Z,1.07
2019-05-12T19:53:33.257Z,1.10
2019-05-12T19:56:03.631Z,1.20
2019-05-12T19:58:31.082Z,1.10
2019-05-12T20:00:59.094Z,1.40
2019-05-12T20:03:27.128Z,1.10
2019-05-12T20:05:55.503Z,1.03
2019-05-12T20:08:23.547Z,1.20
2019-05-12T20:10:51.484Z,1.20
2019-05-12T20:13:19.546Z,1.10
2019-05-12T20:15:47.667Z,1.00
2019-05-12T20:18:16.969Z,1.17
2019-05-12T20:20:45.011Z,1.10
2019-05-12T20:23:14.194Z,1.03
2019-05-12T20:25:44.214Z,1.20
2019-05-12T20:28:14.359Z,1.20
2019-05-12T20:30:43.846Z,1.20
2019-05-12T20:33:13.725Z,1.10
2019-05-12T20:35:47.332Z,1.10
2019-05-12T20:38:11.229Z,1.07
2019-05-12T20:40:39.890Z,1.30
2019-05-12T20:43:08.670Z,1.10
2019-05-12T20:45:40.839Z,1.20
2019-05-12T20:48:07.863Z,1.20
2019-05-12T20:50:38.632Z,1.20
2019-05-12T20:53:05.518Z,1.30
2019-05-12T20:55:36.612Z,1.10
2019-05-12T20:58:04.431Z,1.10
2019-05-12T21:00:33.637Z,0.97
2019-05-12T21:03:04.343Z,0.90
2019-05-12T21:05:34.330Z,1.10
2019-05-12T21:08:10.972Z,1.20
2019-05-12T21:10:34.138Z,1.20
2019-05-12T21:13:02.059Z,1.00
2019-05-12T21:15:37.155Z,1.40
2019-05-12T21:18:06.455Z,1.27
2019-05-12T21:20:29.362Z,1.00
2019-05-12T21:22:57.443Z,1.17
2019-05-12T21:25:25.487Z,1.10
2019-05-12T21:28:02.259Z,1.10
2019-05-12T21:30:24.693Z,1.00
2019-05-12T21:33:00.756Z,1.10
2019-05-12T21:35:26.053Z,1.20
2019-05-12T21:37:54.023Z,1.00
2019-05-12T21:40:30.069Z,1.20
2019-05-12T21:42:53.705Z,1.10
2019-05-12T21:45:26.593Z,1.27
2019-05-12T21:47:51.428Z,1.00
2019-05-12T21:50:24.114Z,1.10
2019-05-12T21:52:49.057Z,1.20
2019-05-12T21:55:21.839Z,1.20
2019-05-12T21:57:46.655Z,1.20
2019-05-12T22:00:20.153Z,1.10
2019-05-12T22:02:48.391Z,1.13
2019-05-12T22:05:23.957Z,1.20
2019-05-12T22:07:46.124Z,1.20
2019-05-12T22:10:15.557Z,1.10
2019-05-12T22:12:44.171Z,1.17
2019-05-12T22:15:21.349Z,1.10
2019-05-12T22:18:04.727Z,1.20
2019-05-12T22:20:32.427Z,1.00
2019-05-12T22:23:06.190Z,1.00
2019-05-12T22:25:30.535Z,1.10
2019-05-12T22:27:59.305Z,1.10
2019-05-12T22:30:29.642Z,1.20
2019-05-12T22:32:59.383Z,1.13
2019-05-12T22:35:27.619Z,1.07
2019-05-12T22:37:55.623Z,1.07
2019-05-12T22:40:23.710Z,1.10
2019-05-12T22:42:59.286Z,1.10
2019-05-12T22:45:23.844Z,1.13
2019-05-12T22:47:55.182Z,1.07
2019-05-12T22:50:21.443Z,1.17
2019-05-12T22:52:49.603Z,1.27
2019-05-12T22:55:21.244Z,0.97
2019-05-12T22:57:47.752Z,1.27
2019-05-12T23:00:19.487Z,1.10
2019-05-12T23:02:46.347Z,1.30
2019-05-12T23:05:19.013Z,1.20
2019-05-12T23:07:44.160Z,1.20
2019-05-12T23:10:14.235Z,1.30
2019-05-12T23:12:41.807Z,1.10
2019-05-12T23:15:13.608Z,1.30
2019-05-12T23:17:45.159Z,1.00
2019-05-12T23:20:13.533Z,1.30
2019-05-12T23:22:41.200Z,1.30
2019-05-12T23:25:11.532Z,1.30
2019-05-12T23:27:38.775Z,1.20
2019-05-12T23:30:10.793Z,1.30
2019-05-12T23:32:36.544Z,1.50
2019-05-12T23:35:05.068Z,1.20
2019-05-12T23:37:38.350Z,1.27
2019-05-12T23:40:04.358Z,1.10
2019-05-12T23:42:34.308Z,1.50
2019-05-12T23:45:03.586Z,1.40
2019-05-12T23:47:33.834Z,1.40
2019-05-12T23:50:03.890Z,1.27
2019-05-12T23:52:31.269Z,1.17
2019-05-12T23:54:59.224Z,1.33
2019-05-12T23:57:27.242Z,1.30
2019-05-12T23:59:55.287Z,1.37
